TimeEDT,TemperatureF,Dew PointF,Humidity,Sea Level PressureIn,VisibilityMPH,Wind Direction,Wind SpeedMPH,Gust SpeedMPH,PrecipitationIn,Events,Conditions,WindDirDegrees,DateUTC
12:52 AM,55.0,52.0,89,29.85,10.0,Calm,Calm,-,0.01,,Clear,0,2012-09-10 04:52:00
1:52 AM,54.0,51.1,90,29.85,10.0,Calm,Calm,-,N/A,,Clear,0,2012-09-10 05:52:00
2:52 AM,52.0,48.9,89,29.84,10.0,Calm,Calm,-,N/A,,Clear,0,2012-09-10 06:52:00
3:52 AM,55.0,53.1,93,29.84,10.0,NNW,3.5,-,N/A,,Clear,340,2012-09-10 07:52:00
4:52 AM,55.9,54.0,93,29.85,10.0,North,4.6,-,N/A,,Clear,350,2012-09-10 08:52:00
5:52 AM,57.0,54.0,89,29.86,10.0,NNW,6.9,-,N/A,,Clear,340,2012-09-10 09:52:00
6:52 AM,57.0,53.1,87,29.88,10.0,North,8.1,-,N/A,,Mostly Cloudy,350,2012-09-10 10:52:00
7:52 AM,59.0,53.1,81,29.91,10.0,NNW,5.8,-,N/A,,Mostly Cloudy,340,2012-09-10 11:52:00
8:52 AM,61.0,51.1,70,29.92,10.0,NNW,10.4,-,N/A,,Mostly Cloudy,340,2012-09-10 12:52:00
9:52 AM,64.0,48.0,56,29.93,10.0,NNW,11.5,19.6,N/A,,Clear,340,2012-09-10 13:52:00
10:52 AM,64.9,48.0,54,29.93,10.0,NW,10.4,17.3,N/A,,Partly Cloudy,320,2012-09-10 14:52:00
11:52 AM,66.9,48.0,51,29.92,10.0,North,10.4,20.7,N/A,,Partly Cloudy,350,2012-09-10 15:52:00
12:52 PM,66.0,46.9,50,29.91,10.0,North,10.4,-,N/A,,Mostly Cloudy,360,2012-09-10 16:52:00
1:52 PM,66.9,46.9,49,29.90,10.0,NW,10.4,-,N/A,,Overcast,320,2012-09-10 17:52:00
3:52 PM,66.0,46.9,50,29.90,10.0,NW,13.8,21.9,N/A,,Overcast,310,2012-09-10 19:52:00
4:52 PM,64.9,46.9,52,29.92,10.0,NNW,12.7,17.3,N/A,,Overcast,330,2012-09-10 20:52:00
5:52 PM,64.0,46.0,52,29.94,10.0,NNW,10.4,-,N/A,,Mostly Cloudy,330,2012-09-10 21:52:00
6:52 PM,62.1,45.0,53,29.96,10.0,NNW,9.2,-,N/A,,Mostly Cloudy,340,2012-09-10 22:52:00
7:52 PM,59.0,44.1,58,29.99,10.0,North,6.9,-,N/A,,Clear,350,2012-09-10 23:52:00
8:52 PM,57.0,44.1,62,30.02,10.0,NNW,6.9,-,N/A,,Clear,340,2012-09-11 00:52:00
9:52 PM,55.0,44.1,67,30.02,10.0,NNW,5.8,-,N/A,,Clear,330,2012-09-11 01:52:00
10:52 PM,55.0,43.0,64,30.03,10.0,WNW,4.6,-,N/A,,Clear,300,2012-09-11 02:52:00
11:52 PM,52.0,43.0,71,30.04,10.0,WNW,5.8,-,N/A,,Clear,300,2012-09-11 03:52:00